sensor_id;sensor_type;location;lat;lon;timestamp;pressure;altitude;pressure_sealevel;temperature
18713;BMP280;9485;49.386;8.674;2022-12-18T00:02:59;101746.06;;;-2.49
18713;BMP280;9485;49.386;8.674;2022-12-18T00:08:21;101742.56;;;-2.42
18713;BMP280;9485;49.386;8.674;2022-12-18T00:13:43;101735.06;;;-2.42
18713;BMP280;9485;49.386;8.674;2022-12-18T00:19:05;101746.06;;;-2.49
18713;BMP280;9485;49.386;8.674;2022-12-18T00:24:26;101738.50;;;-2.52
18713;BMP280;9485;49.386;8.674;2022-12-18T00:29:49;101752.28;;;-2.55
18713;BMP280;9485;49.386;8.674;2022-12-18T00:35:10;101740.84;;;-2.54
18713;BMP280;9485;49.386;8.674;2022-12-18T00:40:30;101745.63;;;-2.51
18713;BMP280;9485;49.386;8.674;2022-12-18T00:45:52;101730.25;;;-2.48
18713;BMP280;9485;49.386;8.674;2022-12-18T00:51:13;101736.63;;;-2.44
18713;BMP280;9485;49.386;8.674;2022-12-18T00:56:36;101749.22;;;-2.47
18713;BMP280;9485;49.386;8.674;2022-12-18T01:01:58;101761.72;;;-2.60
18713;BMP280;9485;49.386;8.674;2022-12-18T01:07:19;101762.53;;;-2.59
18713;BMP280;9485;49.386;8.674;2022-12-18T01:12:40;101752.66;;;-2.57
18713;BMP280;9485;49.386;8.674;2022-12-18T01:18:05;101743.16;;;-2.59
18713;BMP280;9485;49.386;8.674;2022-12-18T01:23:26;101729.38;;;-2.56
18713;BMP280;9485;49.386;8.674;2022-12-18T01:28:47;101735.69;;;-2.55
18713;BMP280;9485;49.386;8.674;2022-12-18T01:34:09;101736.06;;;-2.57
18713;BMP280;9485;49.386;8.674;2022-12-18T01:39:30;101746.78;;;-2.52
18713;BMP280;9485;49.386;8.674;2022-12-18T01:45:05;101754.31;;;-2.52
18713;BMP280;9485;49.386;8.674;2022-12-18T01:50:32;101768.53;;;-2.50
18713;BMP280;9485;49.386;8.674;2022-12-18T01:55:56;101747.22;;;-2.50
18713;BMP280;9485;49.386;8.674;2022-12-18T02:01:19;101731.84;;;-2.47
18713;BMP280;9485;49.386;8.674;2022-12-18T02:06:42;101731.00;;;-2.51
18713;BMP280;9485;49.386;8.674;2022-12-18T02:12:13;101732.94;;;-2.55
18713;BMP280;9485;49.386;8.674;2022-12-18T02:17:45;101745.47;;;-2.65
18713;BMP280;9485;49.386;8.674;2022-12-18T02:23:27;101746.53;;;-2.73
18713;BMP280;9485;49.386;8.674;2022-12-18T02:29:01;101763.06;;;-2.76
18713;BMP280;9485;49.386;8.674;2022-12-18T02:34:28;101777.63;;;-2.83
18713;BMP280;9485;49.386;8.674;2022-12-18T02:39:55;101759.78;;;-2.85
18713;BMP280;9485;49.386;8.674;2022-12-18T02:45:19;101753.03;;;-2.88
18713;BMP280;9485;49.386;8.674;2022-12-18T02:50:51;101747.47;;;-2.91
18713;BMP280;9485;49.386;8.674;2022-12-18T02:56:21;101725.31;;;-2.95
18713;BMP280;9485;49.386;8.674;2022-12-18T03:01:55;101728.94;;;-2.91
18713;BMP280;9485;49.386;8.674;2022-12-18T03:07:26;101698.91;;;-2.89
18713;BMP280;9485;49.386;8.674;2022-12-18T03:12:56;101738.00;;;-2.90
18713;BMP280;9485;49.386;8.674;2022-12-18T03:18:25;101740.38;;;-2.89
18713;BMP280;9485;49.386;8.674;2022-12-18T03:23:50;101756.53;;;-2.94
18713;BMP280;9485;49.386;8.674;2022-12-18T03:29:18;101761.19;;;-2.98
18713;BMP280;9485;49.386;8.674;2022-12-18T04:31:34;101728.44;;;-3.25
18713;BMP280;9485;49.386;8.674;2022-12-18T04:36:56;101718.88;;;-3.31
18713;BMP280;9485;49.386;8.674;2022-12-18T04:42:16;101720.66;;;-3.42
18713;BMP280;9485;49.386;8.674;2022-12-18T04:47:38;101730.53;;;-3.41
18713;BMP280;9485;49.386;8.674;2022-12-18T04:52:59;101725.03;;;-3.41
18713;BMP280;9485;49.386;8.674;2022-12-18T04:58:19;101729.75;;;-3.42
18713;BMP280;9485;49.386;8.674;2022-12-18T05:03:41;101742.25;;;-3.48
18713;BMP280;9485;49.386;8.674;2022-12-18T05:09:03;101750.25;;;-3.43
18713;BMP280;9485;49.386;8.674;2022-12-18T05:14:24;101752.63;;;-3.41
18713;BMP280;9485;49.386;8.674;2022-12-18T05:19:45;101766.44;;;-3.41
18713;BMP280;9485;49.386;8.674;2022-12-18T05:25:07;101767.66;;;-3.39
18713;BMP280;9485;49.386;8.674;2022-12-18T05:30:27;101773.56;;;-3.40
18713;BMP280;9485;49.386;8.674;2022-12-18T05:35:52;101770.38;;;-3.42
18713;BMP280;9485;49.386;8.674;2022-12-18T05:41:13;101766.78;;;-3.46
18713;BMP280;9485;49.386;8.674;2022-12-18T05:46:34;101760.75;;;-3.52
18713;BMP280;9485;49.386;8.674;2022-12-18T05:51:55;101743.28;;;-3.59
18713;BMP280;9485;49.386;8.674;2022-12-18T05:57:16;101737.75;;;-3.59
18713;BMP280;9485;49.386;8.674;2022-12-18T06:02:37;101731.91;;;-3.54
18713;BMP280;9485;49.386;8.674;2022-12-18T06:07:58;101726.41;;;-3.54
18713;BMP280;9485;49.386;8.674;2022-12-18T06:13:20;101757.75;;;-3.66
18713;BMP280;9485;49.386;8.674;2022-12-18T06:18:40;101758.81;;;-3.73
18713;BMP280;9485;49.386;8.674;2022-12-18T06:24:02;101762.53;;;-3.85
18713;BMP280;9485;49.386;8.674;2022-12-18T06:29:23;101777.75;;;-3.94
18713;BMP280;9485;49.386;8.674;2022-12-18T06:34:44;101784.72;;;-4.00
18713;BMP280;9485;49.386;8.674;2022-12-18T06:40:07;101786.72;;;-4.01
18713;BMP280;9485;49.386;8.674;2022-12-18T06:45:28;101784.81;;;-3.97
18713;BMP280;9485;49.386;8.674;2022-12-18T06:50:49;101785.59;;;-3.96
18713;BMP280;9485;49.386;8.674;2022-12-18T06:56:10;101793.44;;;-3.98
18713;BMP280;9485;49.386;8.674;2022-12-18T07:01:31;101808.56;;;-4.11
18713;BMP280;9485;49.386;8.674;2022-12-18T07:06:52;101808.38;;;-4.22
18713;BMP280;9485;49.386;8.674;2022-12-18T07:12:14;101819.75;;;-4.23
18713;BMP280;9485;49.386;8.674;2022-12-18T07:17:35;101813.50;;;-4.20
18713;BMP280;9485;49.386;8.674;2022-12-18T07:22:56;101818.88;;;-4.27
18713;BMP280;9485;49.386;8.674;2022-12-18T07:28:18;101825.88;;;-4.33
18713;BMP280;9485;49.386;8.674;2022-12-18T07:33:40;101830.56;;;-4.34
18713;BMP280;9485;49.386;8.674;2022-12-18T07:39:01;101833.69;;;-4.35
18713;BMP280;9485;49.386;8.674;2022-12-18T08:41:24;101826.59;;;-2.24
18713;BMP280;9485;49.386;8.674;2022-12-18T08:46:45;101799.28;;;-1.93
18713;BMP280;9485;49.386;8.674;2022-12-18T08:52:07;101799.09;;;-1.71
18713;BMP280;9485;49.386;8.674;2022-12-18T08:57:29;101791.44;;;-1.45
18713;BMP280;9485;49.386;8.674;2022-12-18T09:02:50;101791.66;;;-1.20
18713;BMP280;9485;49.386;8.674;2022-12-18T09:08:11;101777.56;;;-0.94
18713;BMP280;9485;49.386;8.674;2022-12-18T09:13:33;101759.84;;;-0.76
18713;BMP280;9485;49.386;8.674;2022-12-18T09:18:55;101754.84;;;-0.46
18713;BMP280;9485;49.386;8.674;2022-12-18T09:24:19;101756.19;;;-0.05
18713;BMP280;9485;49.386;8.674;2022-12-18T09:29:41;101753.47;;;0.19
18713;BMP280;9485;49.386;8.674;2022-12-18T09:35:03;101757.03;;;0.30
18713;BMP280;9485;49.386;8.674;2022-12-18T09:40:26;101775.72;;;0.36
18713;BMP280;9485;49.386;8.674;2022-12-18T09:45:56;101787.25;;;0.59
18713;BMP280;9485;49.386;8.674;2022-12-18T09:51:23;101797.56;;;0.73
18713;BMP280;9485;49.386;8.674;2022-12-18T09:56:47;101809.09;;;0.92
18713;BMP280;9485;49.386;8.674;2022-12-18T10:02:19;101832.91;;;1.24
18713;BMP280;9485;49.386;8.674;2022-12-18T10:07:54;101821.69;;;1.66
18713;BMP280;9485;49.386;8.674;2022-12-18T10:13:23;101816.00;;;1.97
18713;BMP280;9485;49.386;8.674;2022-12-18T10:19:10;101791.63;;;2.08
18713;BMP280;9485;49.386;8.674;2022-12-18T10:24:40;101793.19;;;2.20
18713;BMP280;9485;49.386;8.674;2022-12-18T10:30:14;101797.94;;;2.22
18713;BMP280;9485;49.386;8.674;2022-12-18T10:35:36;101820.94;;;2.37
18713;BMP280;9485;49.386;8.674;2022-12-18T10:40:59;101790.72;;;2.32
18713;BMP280;9485;49.386;8.674;2022-12-18T10:46:21;101765.75;;;2.11
18713;BMP280;9485;49.386;8.674;2022-12-18T10:51:43;101756.59;;;2.07
18713;BMP280;9485;49.386;8.674;2022-12-18T10:57:34;101763.03;;;2.01
18713;BMP280;9485;49.386;8.674;2022-12-18T11:02:57;101766.91;;;2.17
18713;BMP280;9485;49.386;8.674;2022-12-18T11:08:21;101775.50;;;2.43
18713;BMP280;9485;49.386;8.674;2022-12-18T11:14:02;101764.28;;;2.54
18713;BMP280;9485;49.386;8.674;2022-12-18T11:19:32;101773.06;;;2.49
18713;BMP280;9485;49.386;8.674;2022-12-18T11:24:59;101789.44;;;2.43
18713;BMP280;9485;49.386;8.674;2022-12-18T11:30:26;101773.88;;;2.49
18713;BMP280;9485;49.386;8.674;2022-12-18T11:35:53;101786.13;;;2.59
18713;BMP280;9485;49.386;8.674;2022-12-18T11:41:26;101766.66;;;2.55
18713;BMP280;9485;49.386;8.674;2022-12-18T11:47:19;101770.91;;;2.70
18713;BMP280;9485;49.386;8.674;2022-12-18T11:52:42;101772.09;;;2.69
18713;BMP280;9485;49.386;8.674;2022-12-18T11:58:14;101746.63;;;2.67
18713;BMP280;9485;49.386;8.674;2022-12-18T12:09:34;101752.25;;;2.60
18713;BMP280;9485;49.386;8.674;2022-12-18T12:15:10;101769.38;;;2.62
18713;BMP280;9485;49.386;8.674;2022-12-18T12:20:47;101750.66;;;2.59
18713;BMP280;9485;49.386;8.674;2022-12-18T12:26:15;101759.00;;;2.63
18713;BMP280;9485;49.386;8.674;2022-12-18T12:31:59;101753.78;;;2.68
18713;BMP280;9485;49.386;8.674;2022-12-18T12:37:33;101749.81;;;2.66
18713;BMP280;9485;49.386;8.674;2022-12-18T12:43:07;101728.38;;;2.56
18713;BMP280;9485;49.386;8.674;2022-12-18T12:48:42;101725.28;;;2.47
18713;BMP280;9485;49.386;8.674;2022-12-18T12:54:12;101716.56;;;2.41
18713;BMP280;9485;49.386;8.674;2022-12-18T12:59:47;101720.53;;;2.44
18713;BMP280;9485;49.386;8.674;2022-12-18T13:05:21;101700.56;;;2.49
18713;BMP280;9485;49.386;8.674;2022-12-18T13:10:43;101696.53;;;2.53
18713;BMP280;9485;49.386;8.674;2022-12-18T13:16:07;101686.47;;;2.66
18713;BMP280;9485;49.386;8.674;2022-12-18T13:21:33;101672.78;;;2.79
18713;BMP280;9485;49.386;8.674;2022-12-18T13:26:54;101655.59;;;2.84
18713;BMP280;9485;49.386;8.674;2022-12-18T13:32:21;101656.41;;;2.84
18713;BMP280;9485;49.386;8.674;2022-12-18T13:37:52;101668.84;;;2.76
18713;BMP280;9485;49.386;8.674;2022-12-18T13:43:28;101652.53;;;2.75
18713;BMP280;9485;49.386;8.674;2022-12-18T13:48:58;101647.69;;;2.79
18713;BMP280;9485;49.386;8.674;2022-12-18T13:54:29;101637.19;;;2.90
18713;BMP280;9485;49.386;8.674;2022-12-18T13:59:51;101641.88;;;2.99
18713;BMP280;9485;49.386;8.674;2022-12-18T14:05:22;101646.69;;;2.99
18713;BMP280;9485;49.386;8.674;2022-12-18T14:10:48;101655.88;;;2.96
18713;BMP280;9485;49.386;8.674;2022-12-18T14:16:15;101660.63;;;2.99
18713;BMP280;9485;49.386;8.674;2022-12-18T14:21:37;101664.59;;;3.01
18713;BMP280;9485;49.386;8.674;2022-12-18T14:27:20;101657.88;;;2.96
18713;BMP280;9485;49.386;8.674;2022-12-18T14:32:41;101648.34;;;2.90
18713;BMP280;9485;49.386;8.674;2022-12-18T14:38:21;101663.19;;;2.83
18713;BMP280;9485;49.386;8.674;2022-12-18T14:43:45;101654.53;;;2.71
18713;BMP280;9485;49.386;8.674;2022-12-18T14:49:21;101649.41;;;2.66
18713;BMP280;9485;49.386;8.674;2022-12-18T15:00:20;101651.19;;;2.49
18713;BMP280;9485;49.386;8.674;2022-12-18T15:05:41;101648.84;;;2.41
18713;BMP280;9485;49.386;8.674;2022-12-18T15:13:22;101629.34;;;2.37
18713;BMP280;9485;49.386;8.674;2022-12-18T15:18:44;101635.41;;;2.29
18713;BMP280;9485;49.386;8.674;2022-12-18T15:24:18;101628.34;;;2.18
18713;BMP280;9485;49.386;8.674;2022-12-18T15:29:42;101626.03;;;2.09
18713;BMP280;9485;49.386;8.674;2022-12-18T15:35:15;101616.97;;;2.02
18713;BMP280;9485;49.386;8.674;2022-12-18T15:40:36;101623.34;;;1.95
18713;BMP280;9485;49.386;8.674;2022-12-18T15:45:58;101621.41;;;1.89
18713;BMP280;9485;49.386;8.674;2022-12-18T15:51:24;101622.31;;;1.75
18713;BMP280;9485;49.386;8.674;2022-12-18T15:56:46;101626.00;;;1.58
18713;BMP280;9485;49.386;8.674;2022-12-18T16:02:26;101618.91;;;1.47
18713;BMP280;9485;49.386;8.674;2022-12-18T16:07:48;101614.19;;;1.41
18713;BMP280;9485;49.386;8.674;2022-12-18T16:13:10;101621.72;;;1.40
18713;BMP280;9485;49.386;8.674;2022-12-18T16:18:34;101626.47;;;1.47
18713;BMP280;9485;49.386;8.674;2022-12-18T16:23:54;101617.69;;;1.48
18713;BMP280;9485;49.386;8.674;2022-12-18T16:29:15;101613.75;;;1.42
18713;BMP280;9485;49.386;8.674;2022-12-18T16:34:37;101606.63;;;1.38
18713;BMP280;9485;49.386;8.674;2022-12-18T16:39:58;101622.91;;;1.46
18713;BMP280;9485;49.386;8.674;2022-12-18T16:45:21;101608.13;;;1.52
18713;BMP280;9485;49.386;8.674;2022-12-18T16:50:43;101600.16;;;1.58
18713;BMP280;9485;49.386;8.674;2022-12-18T16:56:04;101589.81;;;1.55
18713;BMP280;9485;49.386;8.674;2022-12-18T17:01:27;101579.88;;;1.54
18713;BMP280;9485;49.386;8.674;2022-12-18T17:06:50;101579.44;;;1.66
18713;BMP280;9485;49.386;8.674;2022-12-18T17:12:12;101583.28;;;1.82
18713;BMP280;9485;49.386;8.674;2022-12-18T17:17:33;101579.22;;;1.94
18713;BMP280;9485;49.386;8.674;2022-12-18T17:22:57;101585.59;;;1.91
18713;BMP280;9485;49.386;8.674;2022-12-18T17:28:18;101594.00;;;1.84
18713;BMP280;9485;49.386;8.674;2022-12-18T17:33:40;101597.59;;;1.84
18713;BMP280;9485;49.386;8.674;2022-12-18T17:46:06;101573.31;;;1.85
18713;BMP280;9485;49.386;8.674;2022-12-18T17:51:27;101568.50;;;1.85
18713;BMP280;9485;49.386;8.674;2022-12-18T17:56:48;101566.38;;;2.03
18713;BMP280;9485;49.386;8.674;2022-12-18T18:02:11;101563.97;;;2.09
18713;BMP280;9485;49.386;8.674;2022-12-18T18:07:32;101567.09;;;2.11
18713;BMP280;9485;49.386;8.674;2022-12-18T18:16:11;101553.91;;;2.18
18713;BMP280;9485;49.386;8.674;2022-12-18T18:21:38;101547.47;;;2.24
18713;BMP280;9485;49.386;8.674;2022-12-18T18:26:59;101546.56;;;2.34
18713;BMP280;9485;49.386;8.674;2022-12-18T18:32:21;101553.66;;;2.42
18713;BMP280;9485;49.386;8.674;2022-12-18T18:37:42;101560.78;;;2.47
18713;BMP280;9485;49.386;8.674;2022-12-18T18:43:02;101554.81;;;2.45
18713;BMP280;9485;49.386;8.674;2022-12-18T18:48:25;101571.56;;;2.45
18713;BMP280;9485;49.386;8.674;2022-12-18T18:53:50;101556.78;;;2.48
18713;BMP280;9485;49.386;8.674;2022-12-18T18:59:11;101552.41;;;2.47
18713;BMP280;9485;49.386;8.674;2022-12-18T19:04:33;101541.97;;;2.54
18713;BMP280;9485;49.386;8.674;2022-12-18T19:09:55;101544.25;;;2.63
18713;BMP280;9485;49.386;8.674;2022-12-18T19:15:16;101538.63;;;2.66
18713;BMP280;9485;49.386;8.674;2022-12-18T19:20:37;101527.44;;;2.70
18713;BMP280;9485;49.386;8.674;2022-12-18T19:25:59;101502.72;;;2.72
18713;BMP280;9485;49.386;8.674;2022-12-18T19:31:20;101504.34;;;2.69
18713;BMP280;9485;49.386;8.674;2022-12-18T19:36:43;101492.13;;;2.60
18713;BMP280;9485;49.386;8.674;2022-12-18T19:42:03;101497.75;;;2.56
18713;BMP280;9485;49.386;8.674;2022-12-18T19:47:24;101505.75;;;2.51
18713;BMP280;9485;49.386;8.674;2022-12-18T19:52:46;101511.41;;;2.44
18713;BMP280;9485;49.386;8.674;2022-12-18T19:58:07;101498.72;;;2.39
18713;BMP280;9485;49.386;8.674;2022-12-18T20:03:28;101503.19;;;2.33
18713;BMP280;9485;49.386;8.674;2022-12-18T20:08:51;101500.44;;;2.30
18713;BMP280;9485;49.386;8.674;2022-12-18T20:14:14;101490.53;;;2.25
18713;BMP280;9485;49.386;8.674;2022-12-18T20:19:34;101477.78;;;2.24
18713;BMP280;9485;49.386;8.674;2022-12-18T20:24:56;101479.28;;;2.32
18713;BMP280;9485;49.386;8.674;2022-12-18T20:30:17;101474.44;;;2.40
18713;BMP280;9485;49.386;8.674;2022-12-18T20:35:38;101495.13;;;2.42
18713;BMP280;9485;49.386;8.674;2022-12-18T20:41:00;101513.88;;;2.38
18713;BMP280;9485;49.386;8.674;2022-12-18T20:46:21;101501.56;;;2.36
18713;BMP280;9485;49.386;8.674;2022-12-18T20:51:42;101496.88;;;2.29
18713;BMP280;9485;49.386;8.674;2022-12-18T20:57:04;101486.56;;;2.23
18713;BMP280;9485;49.386;8.674;2022-12-18T21:02:25;101472.25;;;2.21
18713;BMP280;9485;49.386;8.674;2022-12-18T21:07:46;101474.69;;;2.19
18713;BMP280;9485;49.386;8.674;2022-12-18T21:13:08;101469.19;;;2.12
18713;BMP280;9485;49.386;8.674;2022-12-18T21:18:28;101502.75;;;1.98
18713;BMP280;9485;49.386;8.674;2022-12-18T21:23:49;101505.94;;;1.97
18713;BMP280;9485;49.386;8.674;2022-12-18T21:29:14;101512.31;;;1.97
18713;BMP280;9485;49.386;8.674;2022-12-18T21:34:37;101499.56;;;2.00
18713;BMP280;9485;49.386;8.674;2022-12-18T21:39:57;101475.25;;;2.00
18713;BMP280;9485;49.386;8.674;2022-12-18T21:45:19;101485.19;;;2.01
18713;BMP280;9485;49.386;8.674;2022-12-18T21:50:40;101498.00;;;1.95
18713;BMP280;9485;49.386;8.674;2022-12-18T21:56:01;101498.47;;;1.90
18713;BMP280;9485;49.386;8.674;2022-12-18T22:01:23;101475.72;;;1.95
18713;BMP280;9485;49.386;8.674;2022-12-18T22:06:44;101480.88;;;1.97
18713;BMP280;9485;49.386;8.674;2022-12-18T22:12:06;101486.44;;;1.97
18713;BMP280;9485;49.386;8.674;2022-12-18T22:17:29;101503.56;;;1.95
18713;BMP280;9485;49.386;8.674;2022-12-18T22:22:50;101534.63;;;1.94
18713;BMP280;9485;49.386;8.674;2022-12-18T22:28:11;101520.28;;;1.95
18713;BMP280;9485;49.386;8.674;2022-12-18T22:33:51;101495.16;;;2.02
18713;BMP280;9485;49.386;8.674;2022-12-18T22:39:14;101496.69;;;2.07
18713;BMP280;9485;49.386;8.674;2022-12-18T22:44:35;101494.63;;;2.14
18713;BMP280;9485;49.386;8.674;2022-12-18T22:49:57;101507.28;;;2.22
18713;BMP280;9485;49.386;8.674;2022-12-18T22:55:17;101522.75;;;2.26
18713;BMP280;9485;49.386;8.674;2022-12-18T23:00:39;101525.84;;;2.35
18713;BMP280;9485;49.386;8.674;2022-12-18T23:06:06;101511.41;;;2.44
18713;BMP280;9485;49.386;8.674;2022-12-18T23:11:26;101515.34;;;2.50
18713;BMP280;9485;49.386;8.674;2022-12-18T23:16:48;101500.16;;;2.54
18713;BMP280;9485;49.386;8.674;2022-12-18T23:22:10;101484.91;;;2.62
18713;BMP280;9485;49.386;8.674;2022-12-18T23:27:30;101479.63;;;2.71
18713;BMP280;9485;49.386;8.674;2022-12-18T23:32:51;101489.88;;;2.78
18713;BMP280;9485;49.386;8.674;2022-12-18T23:38:13;101482.19;;;2.89
18713;BMP280;9485;49.386;8.674;2022-12-18T23:43:34;101472.47;;;2.96
18713;BMP280;9485;49.386;8.674;2022-12-18T23:48:57;101468.09;;;2.99
18713;BMP280;9485;49.386;8.674;2022-12-18T23:54:19;101464.09;;;2.96
18713;BMP280;9485;49.386;8.674;2022-12-18T23:59:40;101450.53;;;2.98
